createdAt,value
2022-08-10T00:06:53.111Z,7.0
2022-08-10T00:14:25.458Z,6.4
2022-08-10T00:21:57.776Z,5.0
2022-08-10T00:29:30.094Z,6.7
2022-08-10T00:37:02.435Z,6.3
2022-08-10T00:44:34.795Z,4.6
2022-08-10T00:52:07.333Z,4.0
2022-08-10T00:59:59.185Z,3.8
2022-08-10T01:07:21.958Z,3.6
2022-08-10T01:14:54.281Z,5.5
2022-08-10T01:22:26.627Z,4.9
2022-08-10T01:29:58.970Z,5.2
2022-08-10T01:37:31.313Z,4.4
2022-08-10T01:45:03.658Z,3.6
2022-08-10T01:52:36.212Z,3.9
2022-08-10T02:00:08.672Z,3.2
2022-08-10T02:07:41.004Z,3.2
2022-08-10T02:15:13.325Z,4.1
2022-08-10T02:22:45.716Z,3.7
2022-08-10T02:30:18.300Z,3.0
2022-08-10T02:37:50.624Z,3.4
2022-08-10T02:45:31.072Z,3.6
2022-08-10T02:53:04.181Z,2.9
2022-08-10T03:00:36.505Z,3.7
2022-08-10T03:08:08.837Z,2.8
2022-08-10T03:09:58.397Z,2.7
2022-08-10T03:17:30.739Z,3.1
2022-08-10T03:25:03.062Z,2.2
2022-08-10T03:32:35.440Z,3.1
2022-08-10T03:40:07.828Z,2.5
2022-08-10T03:47:40.286Z,3.2
2022-08-10T03:55:12.613Z,3.5
2022-08-10T04:02:55.203Z,2.5
2022-08-10T04:10:27.756Z,3.3
2022-08-10T04:18:05.592Z,2.8
2022-08-10T04:18:53.401Z,3.8
2022-08-10T04:19:40.779Z,3.1
2022-08-10T04:20:29.908Z,4.6
2022-08-10T04:21:22.029Z,3.7
2022-08-10T04:22:09.428Z,3.2
2022-08-10T04:22:56.763Z,4.2
2022-08-10T04:23:46.936Z,3.1
2022-08-10T04:24:36.130Z,3.6
2022-08-10T04:25:23.540Z,3.1
2022-08-10T04:26:10.845Z,3.3
2022-08-10T04:26:58.145Z,4.3
2022-08-10T04:27:45.558Z,3.7
2022-08-10T04:28:32.878Z,5.7
2022-08-10T04:29:20.236Z,2.8
2022-08-10T04:30:07.589Z,5.2
2022-08-10T04:30:54.901Z,3.7
2022-08-10T04:31:42.202Z,3.1
2022-08-10T04:32:29.602Z,13.8
2022-08-10T04:33:16.911Z,3.5
2022-08-10T04:34:08.597Z,3.0
2022-08-10T04:34:56.326Z,7.2
2022-08-10T04:35:43.733Z,4.0
2022-08-10T04:36:31.131Z,4.7
2022-08-10T04:37:18.503Z,2.3
2022-08-10T04:38:05.874Z,4.2
2022-08-10T04:38:53.183Z,12.2
2022-08-10T04:39:40.547Z,4.3
2022-08-10T04:40:29.423Z,5.6
2022-08-10T04:41:17.941Z,3.0
2022-08-10T04:42:05.250Z,4.6
2022-08-10T04:42:52.561Z,6.4
2022-08-10T04:43:39.869Z,4.7
2022-08-10T04:44:27.150Z,3.6
2022-08-10T04:45:14.460Z,5.8
2022-08-10T04:46:01.773Z,3.5
2022-08-10T04:46:57.726Z,4.8
2022-08-10T04:48:00.776Z,5.1
2022-08-10T04:48:59.504Z,4.5
2022-08-10T04:49:54.966Z,6.6
2022-08-10T04:50:38.781Z,9.0
2022-08-10T04:51:26.209Z,5.0
2022-08-10T04:52:13.539Z,6.6
2022-08-10T04:53:00.990Z,7.2
2022-08-10T04:54:04.518Z,4.2
2022-08-10T04:54:45.652Z,3.8
2022-08-10T04:55:33.048Z,5.8
2022-08-10T04:56:20.394Z,5.7
2022-08-10T04:57:17.694Z,6.3
2022-08-10T04:58:05.071Z,11.1
2022-08-10T04:58:52.395Z,12.4
2022-08-10T04:59:40.302Z,5.5
2022-08-10T05:00:27.638Z,24.5
2022-08-10T05:01:15.023Z,5.6
2022-08-10T05:02:30.169Z,5.3
2022-08-10T05:03:00.139Z,8.7
2022-08-10T05:04:36.351Z,7.9
2022-08-10T05:04:44.994Z,14.8
2022-08-10T05:05:32.421Z,7.1
2022-08-10T05:06:19.724Z,10.4
2022-08-10T05:07:07.067Z,12.0
2022-08-10T05:07:57.001Z,17.6
2022-08-10T05:08:44.463Z,20.7
2022-08-10T05:09:31.776Z,14.0
2022-08-10T05:10:19.090Z,10.1
2022-08-10T05:11:06.406Z,10.3
2022-08-10T05:11:53.722Z,7.5
2022-08-10T05:12:41.302Z,10.7
2022-08-10T05:13:28.809Z,7.2
2022-08-10T05:14:16.251Z,7.8
2022-08-10T05:15:03.560Z,10.8
2022-08-10T05:15:50.862Z,8.7
2022-08-10T05:16:38.221Z,8.7
2022-08-10T05:17:25.537Z,17.4
2022-08-10T05:18:12.860Z,10.0
2022-08-10T05:19:00.276Z,16.8
2022-08-10T05:20:02.159Z,32.7
2022-08-10T05:20:49.620Z,33.5
2022-08-10T05:21:59.837Z,25.8
2022-08-10T05:22:34.834Z,16.5
2022-08-10T05:23:22.267Z,16.3
2022-08-10T05:24:10.017Z,11.2
2022-08-10T05:24:57.389Z,10.8
2022-08-10T05:25:44.796Z,9.7
2022-08-10T05:26:32.114Z,8.3
2022-08-10T05:27:19.427Z,6.1
2022-08-10T05:28:07.097Z,10.2
2022-08-10T05:28:54.553Z,5.9
2022-08-10T05:29:41.859Z,8.4
2022-08-10T05:30:29.198Z,12.8
2022-08-10T05:31:17.780Z,9.2
2022-08-10T05:32:11.272Z,8.5
2022-08-10T05:33:01.793Z,6.5
2022-08-10T05:33:52.551Z,24.4
2022-08-10T05:34:39.957Z,19.1
2022-08-10T05:35:27.270Z,15.2
2022-08-10T05:36:14.596Z,10.2
2022-08-10T05:37:02.006Z,12.9
2022-08-10T05:38:10.908Z,15.1
2022-08-10T05:38:46.639Z,14.5
2022-08-10T05:39:34.090Z,10.1
2022-08-10T05:40:21.481Z,7.0
2022-08-10T05:41:08.805Z,7.5
2022-08-10T05:41:56.236Z,14.3
2022-08-10T05:42:48.655Z,13.4
2022-08-10T05:43:35.961Z,6.2
2022-08-10T05:44:23.271Z,7.3
2022-08-10T05:45:10.582Z,7.1
2022-08-10T05:46:18.130Z,13.8
2022-08-10T05:46:55.269Z,14.8
2022-08-10T05:48:41.598Z,25.3
2022-08-10T05:48:57.175Z,11.5
2022-08-10T05:49:37.297Z,17.2
2022-08-10T05:50:24.731Z,33.6
2022-08-10T05:51:12.064Z,43.6
2022-08-10T05:51:59.394Z,33.8
2022-08-10T05:52:46.871Z,28.6
2022-08-10T05:54:02.438Z,23.8
2022-08-10T05:54:31.535Z,25.6
2022-08-10T05:55:18.949Z,21.5
2022-08-10T05:56:06.269Z,21.6
2022-08-10T05:56:58.117Z,19.0
2022-08-10T05:57:45.766Z,18.4
2022-08-10T05:58:33.486Z,17.6
2022-08-10T06:00:33.149Z,36.3
2022-08-10T06:00:37.482Z,43.1
2022-08-10T06:01:16.072Z,26.5
2022-08-10T06:02:33.610Z,20.4
2022-08-10T06:03:00.805Z,15.9
2022-08-10T06:03:48.233Z,40.9
2022-08-10T06:04:35.552Z,30.0
2022-08-10T06:05:22.901Z,30.6
2022-08-10T06:06:10.283Z,43.3
2022-08-10T06:06:57.625Z,54.4
2022-08-10T06:07:44.957Z,36.9
2022-08-10T06:08:32.457Z,37.1
2022-08-10T06:09:19.793Z,32.6
2022-08-10T06:10:10.118Z,30.6
2022-08-10T06:12:21.746Z,22.5
2022-08-10T06:12:26.815Z,23.3
2022-08-10T06:12:55.062Z,12.6
2022-08-10T06:14:12.545Z,17.9
2022-08-10T06:14:41.329Z,21.3
2022-08-10T06:15:52.254Z,19.9
2022-08-10T06:16:35.989Z,18.7
2022-08-10T06:17:23.396Z,13.3
2022-08-10T06:18:10.707Z,11.9
2022-08-10T06:18:58.019Z,21.3
2022-08-10T06:19:45.496Z,9.8
2022-08-10T06:20:36.060Z,11.1
2022-08-10T06:21:23.668Z,11.4
2022-08-10T06:22:11.083Z,11.8
2022-08-10T06:22:58.389Z,20.9
2022-08-10T06:23:45.708Z,18.7
2022-08-10T06:24:33.094Z,23.5
2022-08-10T06:26:08.163Z,16.4
2022-08-10T06:26:21.423Z,22.2
2022-08-10T06:27:09.116Z,16.8
2022-08-10T06:27:56.711Z,13.6
2022-08-10T06:28:44.053Z,20.6
2022-08-10T06:29:41.362Z,18.9
2022-08-10T06:30:28.776Z,119.9
2022-08-10T06:31:16.147Z,41.4
2022-08-10T06:32:03.481Z,20.1
2022-08-10T06:32:50.874Z,18.5
2022-08-10T06:33:38.220Z,25.3
2022-08-10T06:34:25.557Z,17.8
2022-08-10T06:35:12.933Z,17.9
2022-08-10T06:36:00.248Z,14.8
2022-08-10T06:36:47.953Z,13.0
2022-08-10T06:37:35.341Z,12.1
2022-08-10T06:38:22.663Z,10.6
2022-08-10T06:39:30.266Z,13.1
2022-08-10T06:40:07.398Z,9.0
2022-08-10T06:40:54.765Z,7.9
2022-08-10T06:42:01.372Z,10.1
2022-08-10T06:42:39.357Z,10.1
2022-08-10T06:43:26.775Z,10.9
2022-08-10T06:44:14.114Z,20.0
2022-08-10T06:45:01.435Z,9.4
2022-08-10T06:46:07.394Z,13.9
2022-08-10T06:46:48.122Z,12.8
2022-08-10T06:47:35.505Z,10.5
2022-08-10T06:48:22.817Z,7.4
2022-08-10T06:49:10.131Z,7.6
2022-08-10T06:50:00.079Z,8.8
2022-08-10T06:50:58.525Z,8.8
2022-08-10T06:51:46.207Z,7.4
2022-08-10T06:52:43.513Z,8.3
2022-08-10T06:53:53.646Z,18.8
2022-08-10T06:54:28.195Z,14.4
2022-08-10T06:55:16.915Z,20.2
2022-08-10T06:56:06.080Z,14.7
2022-08-10T06:57:16.518Z,12.7
2022-08-10T06:57:59.974Z,7.1
2022-08-10T06:58:48.005Z,10.8
2022-08-10T06:59:35.318Z,6.9
2022-08-10T07:00:24.434Z,7.1
2022-08-10T07:01:20.795Z,9.6
2022-08-10T07:02:08.175Z,9.6
2022-08-10T07:02:55.505Z,8.9
2022-08-10T07:03:42.814Z,8.4
2022-08-10T07:04:32.071Z,5.2
2022-08-10T07:05:20.792Z,6.6
2022-08-10T07:06:08.251Z,5.6
2022-08-10T07:06:55.600Z,6.4
2022-08-10T07:07:42.920Z,7.9
2022-08-10T07:08:30.307Z,10.6
2022-08-10T07:09:17.615Z,9.8
2022-08-10T07:10:04.928Z,4.5
2022-08-10T07:10:52.357Z,5.7
2022-08-10T07:11:39.666Z,5.0
2022-08-10T07:12:27.007Z,4.8
2022-08-10T07:13:14.401Z,4.9
2022-08-10T07:14:17.478Z,6.4
2022-08-10T07:14:59.464Z,8.1
2022-08-10T07:15:59.727Z,6.2
2022-08-10T07:16:44.066Z,11.8
2022-08-10T07:17:33.870Z,14.3
2022-08-10T07:18:24.601Z,21.0
2022-08-10T07:19:13.953Z,15.4
2022-08-10T07:20:01.267Z,22.8
2022-08-10T07:20:50.569Z,13.6
2022-08-10T07:21:37.882Z,14.2
2022-08-10T07:23:08.239Z,11.7
2022-08-10T07:23:57.344Z,12.8
2022-08-10T07:24:19.830Z,14.6
2022-08-10T07:25:07.451Z,10.6
2022-08-10T07:25:54.833Z,9.9
2022-08-10T07:26:42.148Z,12.9
2022-08-10T07:27:29.581Z,12.5
2022-08-10T07:28:26.881Z,7.5
2022-08-10T07:29:26.599Z,15.2
2022-08-10T07:30:11.581Z,12.4
2022-08-10T07:30:59.032Z,15.1
2022-08-10T07:31:56.510Z,12.6
2022-08-10T07:32:43.642Z,10.0
2022-08-10T07:33:31.066Z,13.5
2022-08-10T07:34:22.589Z,13.2
2022-08-10T07:35:15.685Z,9.7
2022-08-10T07:36:03.078Z,9.2
2022-08-10T07:36:50.400Z,7.2
2022-08-10T07:37:38.266Z,9.4
2022-08-10T07:38:25.667Z,10.6
2022-08-10T07:39:13.031Z,9.1
2022-08-10T07:40:03.396Z,7.2
2022-08-10T07:40:51.518Z,10.9
2022-08-10T07:41:38.871Z,12.2
2022-08-10T07:42:26.193Z,10.4
2022-08-10T07:43:13.523Z,7.9
2022-08-10T07:44:00.905Z,7.4
2022-08-10T07:44:48.217Z,11.4
2022-08-10T07:45:35.541Z,9.9
2022-08-10T07:46:22.947Z,9.9
2022-08-10T07:47:10.261Z,14.4
2022-08-10T07:47:57.593Z,11.4
2022-08-10T07:48:44.985Z,16.9
2022-08-10T07:49:32.306Z,20.0
2022-08-10T07:50:19.657Z,9.2
2022-08-10T07:51:07.066Z,10.6
2022-08-10T07:51:55.110Z,14.9
2022-08-10T07:52:42.554Z,13.9
2022-08-10T07:53:29.971Z,8.4
2022-08-10T07:54:17.309Z,20.0
2022-08-10T07:55:04.633Z,12.1
2022-08-10T07:56:05.006Z,15.9
2022-08-10T07:56:49.613Z,8.5
2022-08-10T07:57:40.314Z,9.8
2022-08-10T07:58:27.751Z,8.0
2022-08-10T07:59:15.074Z,9.5
2022-08-10T08:00:02.531Z,6.4
2022-08-10T08:00:51.792Z,18.5
2022-08-10T08:01:39.291Z,10.6
2022-08-10T08:02:26.654Z,11.3
2022-08-10T08:03:14.062Z,9.1
2022-08-10T08:04:05.636Z,9.1
2022-08-10T08:04:58.725Z,8.1
2022-08-10T08:05:59.205Z,8.4
2022-08-10T08:06:43.435Z,11.6
2022-08-10T08:07:30.835Z,6.6
2022-08-10T08:08:18.181Z,7.2
2022-08-10T08:09:05.506Z,5.7
2022-08-10T08:09:57.860Z,7.1
2022-08-10T08:10:48.185Z,9.0
2022-08-10T08:11:35.580Z,7.5
2022-08-10T08:12:22.885Z,8.0
2022-08-10T08:13:10.172Z,13.2
2022-08-10T08:13:59.297Z,12.7
2022-08-10T08:14:46.612Z,13.5
2022-08-10T08:16:20.840Z,7.9
2022-08-10T08:16:31.250Z,8.9
2022-08-10T08:17:18.652Z,10.9
2022-08-10T08:18:06.118Z,33.9
2022-08-10T08:19:24.129Z,41.6
2022-08-10T08:19:53.459Z,40.8
2022-08-10T08:20:43.025Z,34.3
2022-08-10T08:24:07.379Z,25.8
2022-08-10T08:24:07.662Z,24.8
2022-08-10T08:24:09.032Z,32.6
2022-08-10T08:24:31.991Z,30.6
2022-08-10T08:25:21.207Z,17.4
2022-08-10T08:26:08.561Z,15.9
2022-08-10T08:26:55.882Z,11.3
2022-08-10T08:27:47.752Z,13.5
2022-08-10T08:28:36.554Z,11.3
2022-08-10T08:29:23.964Z,13.9
2022-08-10T08:30:11.320Z,13.3
2022-08-10T08:30:58.677Z,14.7
2022-08-10T08:32:01.792Z,11.5
2022-08-10T08:32:43.391Z,11.6
2022-08-10T08:33:41.954Z,10.2
2022-08-10T08:34:28.145Z,15.0
2022-08-10T08:35:15.535Z,15.2
2022-08-10T08:36:02.853Z,23.6
2022-08-10T08:36:50.305Z,11.9
2022-08-10T08:38:30.432Z,15.7
2022-08-10T08:38:35.162Z,9.2
2022-08-10T08:39:22.607Z,12.4
2022-08-10T08:40:09.954Z,8.9
2022-08-10T08:40:57.264Z,9.4
2022-08-10T08:41:44.725Z,13.0
2022-08-10T08:42:32.099Z,9.9
2022-08-10T08:43:21.666Z,9.7
2022-08-10T08:44:09.090Z,7.2
2022-08-10T08:44:56.645Z,8.3
2022-08-10T08:45:50.935Z,8.6
2022-08-10T08:46:41.266Z,7.5
2022-08-10T08:48:04.865Z,8.4
2022-08-10T08:48:25.985Z,7.1
2022-08-10T08:49:13.401Z,8.3
2022-08-10T08:50:10.727Z,5.0
2022-08-10T08:50:59.608Z,5.8
2022-08-10T08:52:09.832Z,7.2
2022-08-10T08:52:44.346Z,12.1
2022-08-10T08:54:02.218Z,5.9
2022-08-10T08:54:29.037Z,10.3
2022-08-10T08:56:04.321Z,6.3
2022-08-10T08:56:13.786Z,6.7
2022-08-10T08:57:01.214Z,4.6
2022-08-10T08:57:50.006Z,5.7
2022-08-10T08:58:38.141Z,7.5
2022-08-10T08:59:25.637Z,14.1
2022-08-10T09:00:12.971Z,16.1
2022-08-10T09:01:00.773Z,33.0
2022-08-10T09:01:48.213Z,11.7
2022-08-10T09:02:35.838Z,17.5
2022-08-10T09:03:27.942Z,12.7
2022-08-10T09:04:19.623Z,11.0
2022-08-10T09:05:08.618Z,22.7
2022-08-10T09:05:59.231Z,17.3
2022-08-10T09:06:47.876Z,13.6
2022-08-10T09:07:59.522Z,17.6
2022-08-10T09:08:32.749Z,16.2
2022-08-10T09:09:20.067Z,12.3
2022-08-10T09:10:07.377Z,19.8
2022-08-10T09:10:54.695Z,62.6
2022-08-10T09:11:42.136Z,43.9
2022-08-10T09:12:29.445Z,21.0
2022-08-10T09:13:16.761Z,19.4
2022-08-10T09:14:04.413Z,16.0
2022-08-10T09:14:51.745Z,20.4
2022-08-10T09:15:39.864Z,25.8
2022-08-10T09:16:28.502Z,20.0
2022-08-10T09:17:15.805Z,11.5
2022-08-10T09:18:03.121Z,11.6
2022-08-10T09:18:50.435Z,12.7
2022-08-10T09:19:37.869Z,20.8
2022-08-10T09:20:25.185Z,11.1
2022-08-10T09:21:12.490Z,16.3
2022-08-10T09:22:18.463Z,14.3
2022-08-10T09:22:57.733Z,9.9
2022-08-10T09:24:04.582Z,7.9
2022-08-10T09:24:42.743Z,5.9
2022-08-10T09:25:30.550Z,12.8
2022-08-10T09:26:18.143Z,6.5
2022-08-10T09:27:05.457Z,8.7
2022-08-10T09:27:52.770Z,7.2
2022-08-10T09:28:40.216Z,15.1
2022-08-10T09:29:27.525Z,8.8
2022-08-10T09:30:14.888Z,6.3
2022-08-10T09:36:14.793Z,13.1
2022-08-10T09:36:20.495Z,12.1
2022-08-10T09:36:21.415Z,6.6
2022-08-10T09:36:24.754Z,6.8
2022-08-10T09:36:26.581Z,7.4
2022-08-10T09:36:46.253Z,6.2
2022-08-10T09:37:42.646Z,8.9
2022-08-10T09:38:30.996Z,4.2
2022-08-10T09:40:06.638Z,8.8
2022-08-10T09:40:58.920Z,4.6
2022-08-10T09:41:13.712Z,6.5
2022-08-10T09:42:01.165Z,9.0
2022-08-10T09:43:07.613Z,14.2
2022-08-10T09:43:45.773Z,12.1
2022-08-10T09:44:33.193Z,15.8
2022-08-10T09:45:20.512Z,13.4
2022-08-10T09:46:11.964Z,10.7
2022-08-10T09:46:59.538Z,8.3
2022-08-10T09:48:01.639Z,10.6
2022-08-10T09:48:44.231Z,9.3
2022-08-10T09:49:53.807Z,9.8
2022-08-10T09:50:47.608Z,9.7
2022-08-10T09:51:44.888Z,8.4
2022-08-10T09:52:23.530Z,9.1
2022-08-10T09:53:10.894Z,10.7
2022-08-10T09:53:58.209Z,13.5
2022-08-10T09:54:45.778Z,7.6
2022-08-10T09:56:17.026Z,7.0
2022-08-10T09:56:30.411Z,10.2
2022-08-10T09:57:55.057Z,6.4
2022-08-10T09:58:15.136Z,5.7
2022-08-10T09:59:27.130Z,6.8
2022-08-10T10:00:02.586Z,17.5
2022-08-10T10:00:50.346Z,3.6
2022-08-10T10:02:02.497Z,3.6
2022-08-10T10:02:34.994Z,8.4
2022-08-10T10:03:26.019Z,6.9
2022-08-10T10:04:13.602Z,5.0
2022-08-10T10:05:00.957Z,4.8
2022-08-10T10:05:50.275Z,6.4
2022-08-10T10:06:39.631Z,4.0
2022-08-10T10:07:27.123Z,8.4
2022-08-10T10:08:14.483Z,4.3
2022-08-10T10:09:10.165Z,3.3
2022-08-10T10:09:58.082Z,4.6
2022-08-10T10:10:48.001Z,9.1
2022-08-10T10:11:35.518Z,8.2
2022-08-10T10:12:22.985Z,4.1
2022-08-10T10:13:10.302Z,5.5
2022-08-10T10:14:02.744Z,6.4
2022-08-10T10:14:50.986Z,4.2
2022-08-10T10:15:38.414Z,4.7
2022-08-10T10:16:25.730Z,3.7
2022-08-10T10:17:13.049Z,4.9
2022-08-10T10:18:00.430Z,3.7
2022-08-10T10:18:47.921Z,6.8
2022-08-10T10:19:40.383Z,4.1
2022-08-10T10:20:28.130Z,3.4
2022-08-10T10:21:54.658Z,7.0
2022-08-10T10:22:12.830Z,5.0
2022-08-10T10:23:00.251Z,3.6
2022-08-10T10:24:15.533Z,6.5
2022-08-10T10:24:44.872Z,3.8
2022-08-10T10:25:50.847Z,4.4
2022-08-10T10:26:29.596Z,3.2
2022-08-10T10:27:16.997Z,3.6
2022-08-10T10:28:04.321Z,3.2
2022-08-10T10:29:24.839Z,5.2
2022-08-10T10:29:56.644Z,5.9
2022-08-10T10:30:46.293Z,3.6
2022-08-10T10:31:33.665Z,4.0
2022-08-10T10:32:20.979Z,2.9
2022-08-10T10:33:08.300Z,4.5
2022-08-10T10:34:00.506Z,3.2
2022-08-10T10:34:47.905Z,3.7
2022-08-10T10:42:42.442Z,3.0
2022-08-10T10:50:02.575Z,3.1
2022-08-10T10:56:15.156Z,3.8
2022-08-10T10:56:59.516Z,7.1
2022-08-10T10:57:58.415Z,3.7
2022-08-10T10:58:44.222Z,4.0
2022-08-10T10:59:54.475Z,3.5
2022-08-10T11:00:28.964Z,6.5
2022-08-10T11:01:16.403Z,4.3
2022-08-10T11:02:03.797Z,4.1
2022-08-10T11:02:51.101Z,5.5
2022-08-10T11:03:38.501Z,4.3
2022-08-10T11:04:25.806Z,3.2
2022-08-10T11:05:13.126Z,4.4
2022-08-10T11:06:00.550Z,4.2
2022-08-10T11:06:47.879Z,4.3
2022-08-10T11:07:35.321Z,3.7
2022-08-10T11:08:29.106Z,4.2
2022-08-10T11:10:03.207Z,3.2
2022-08-10T11:10:32.779Z,4.5
2022-08-10T11:11:27.008Z,3.2
2022-08-10T11:12:08.853Z,3.8
2022-08-10T11:14:22.779Z,3.8
2022-08-10T11:14:25.672Z,4.1
2022-08-10T11:14:54.954Z,4.9
2022-08-10T11:15:42.731Z,3.3
2022-08-10T11:16:34.832Z,6.6
2022-08-10T11:17:22.141Z,2.5
2022-08-10T11:18:09.449Z,3.3
2022-08-10T11:19:01.274Z,3.6
2022-08-10T11:20:02.271Z,3.4
2022-08-10T11:20:45.994Z,2.8
2022-08-10T11:21:33.403Z,6.1
2022-08-10T11:22:20.741Z,3.7
2022-08-10T11:23:08.076Z,3.9
2022-08-10T11:24:46.739Z,2.7
2022-08-10T11:24:52.755Z,2.8
2022-08-10T11:25:40.172Z,3.0
2022-08-10T11:26:27.476Z,4.3
2022-08-10T11:27:21.591Z,5.0
2022-08-10T11:28:09.465Z,5.3
2022-08-10T11:28:56.867Z,6.9
2022-08-10T11:29:49.690Z,19.1
2022-08-10T11:30:37.304Z,13.4
2022-08-10T11:31:24.711Z,21.7
2022-08-10T11:32:20.490Z,32.9
2022-08-10T11:33:09.006Z,32.6
2022-08-10T11:34:47.682Z,44.7
2022-08-10T11:35:10.449Z,35.2
2022-08-10T11:35:51.055Z,25.7
2022-08-10T11:36:38.457Z,25.2
2022-08-10T11:37:25.790Z,46.1
2022-08-10T11:38:31.667Z,42.2
2022-08-10T11:39:14.408Z,47.3
2022-08-10T11:40:02.244Z,43.0
2022-08-10T11:40:49.612Z,31.5
2022-08-10T11:42:12.384Z,29.9
2022-08-10T11:42:36.437Z,24.6
2022-08-10T11:43:23.985Z,24.6
2022-08-10T11:44:11.334Z,34.5
2022-08-10T11:44:58.693Z,27.8
2022-08-10T11:45:52.397Z,31.0
2022-08-10T11:46:41.665Z,32.7
2022-08-10T11:47:29.072Z,25.4
2022-08-10T11:48:54.869Z,22.2
2022-08-10T11:49:13.752Z,29.8
2022-08-10T11:50:01.117Z,31.5
2022-08-10T11:50:48.461Z,23.0
2022-08-10T11:51:35.793Z,24.6
2022-08-10T11:52:23.200Z,28.8
2022-08-10T11:53:10.533Z,31.7
2022-08-10T11:53:57.860Z,61.9
2022-08-10T11:54:45.302Z,39.0
2022-08-10T11:55:34.014Z,35.2
2022-08-10T11:56:21.344Z,24.8
2022-08-10T11:57:08.762Z,27.7
2022-08-10T11:57:56.102Z,26.5
2022-08-10T11:58:44.871Z,25.5
2022-08-10T11:59:32.177Z,17.1
2022-08-10T12:00:19.519Z,17.3
2022-08-10T12:01:06.835Z,14.3
2022-08-10T12:01:54.146Z,17.3
2022-08-10T12:02:41.542Z,13.3
2022-08-10T12:03:34.062Z,11.8
2022-08-10T12:04:22.007Z,11.3
2022-08-10T12:05:09.398Z,6.9
2022-08-10T12:05:56.724Z,6.9
2022-08-10T12:06:59.301Z,8.4
2022-08-10T12:10:04.849Z,13.5
2022-08-10T12:10:11.122Z,11.5
2022-08-10T12:10:11.669Z,15.2
2022-08-10T12:10:35.362Z,17.9
2022-08-10T12:11:26.507Z,7.3
2022-08-10T12:12:13.847Z,9.8
2022-08-10T12:13:01.270Z,9.3
2022-08-10T12:14:10.693Z,8.2
2022-08-10T12:14:45.876Z,8.7
2022-08-10T12:15:33.458Z,5.9
2022-08-10T12:16:20.768Z,5.3
2022-08-10T12:17:08.147Z,15.0
2022-08-10T12:17:55.481Z,14.0
2022-08-10T12:18:42.795Z,10.7
2022-08-10T12:19:30.120Z,11.6
2022-08-10T12:20:27.410Z,10.4
2022-08-10T12:21:21.547Z,6.6
2022-08-10T12:22:09.613Z,6.0
2022-08-10T12:22:57.190Z,6.2
2022-08-10T12:23:44.494Z,21.6
2022-08-10T12:24:31.817Z,7.6
2022-08-10T12:25:57.679Z,6.7
2022-08-10T12:26:16.506Z,4.5
2022-08-10T12:27:03.921Z,5.5
2022-08-10T12:27:53.100Z,7.5
2022-08-10T12:28:49.813Z,4.0
2022-08-10T12:29:37.725Z,5.3
2022-08-10T12:30:26.881Z,4.5
2022-08-10T12:31:14.206Z,4.1
2022-08-10T12:32:01.529Z,3.3
2022-08-10T12:32:48.930Z,8.9
2022-08-10T12:34:02.764Z,22.2
2022-08-10T12:34:33.623Z,20.5
2022-08-10T12:35:22.692Z,14.8
2022-08-10T12:36:20.566Z,8.5
2022-08-10T12:37:07.901Z,11.2
2022-08-10T12:37:55.341Z,10.7
2022-08-10T12:38:42.681Z,7.5
2022-08-10T12:39:32.037Z,58.6
2022-08-10T12:40:36.383Z,11.0
2022-08-10T12:41:16.750Z,15.7
2022-08-10T12:42:04.201Z,11.3
2022-08-10T12:44:04.556Z,8.1
2022-08-10T12:44:07.898Z,12.9
2022-08-10T12:44:48.240Z,9.9
2022-08-10T12:45:35.676Z,7.8
2022-08-10T12:46:23.096Z,9.6
2022-08-10T12:47:14.568Z,15.1
2022-08-10T12:48:02.032Z,7.8
2022-08-10T12:48:49.466Z,10.5
2022-08-10T12:49:36.776Z,7.1
2022-08-10T12:50:30.214Z,6.5
2022-08-10T12:51:19.314Z,10.2
2022-08-10T12:52:06.741Z,6.2
2022-08-10T12:52:54.058Z,7.3
2022-08-10T12:53:41.374Z,7.0
2022-08-10T12:54:32.474Z,22.8
2022-08-10T12:55:20.389Z,6.0
2022-08-10T12:56:07.718Z,29.5
2022-08-10T12:56:55.030Z,13.2
2022-08-10T12:57:42.346Z,7.4
2022-08-10T12:58:59.752Z,5.6
2022-08-10T12:59:27.054Z,5.1
2022-08-10T13:00:17.587Z,4.3
2022-08-10T13:01:20.503Z,5.2
2022-08-10T13:02:09.524Z,6.6
2022-08-10T13:02:58.192Z,5.9
2022-08-10T13:04:22.663Z,22.9
2022-08-10T13:04:42.857Z,4.8
2022-08-10T13:05:30.260Z,11.5
2022-08-10T13:06:27.568Z,5.0
2022-08-10T13:08:24.608Z,6.3
2022-08-10T13:08:26.366Z,4.4
2022-08-10T13:09:09.960Z,20.6
2022-08-10T13:09:57.274Z,9.5
2022-08-10T13:10:44.598Z,17.1
2022-08-10T13:12:36.063Z,13.6
2022-08-10T13:12:44.791Z,10.8
2022-08-10T13:13:28.434Z,9.4
2022-08-10T13:14:15.802Z,9.1
2022-08-10T13:15:03.112Z,5.7
2022-08-10T13:16:00.424Z,6.3
2022-08-10T13:16:47.878Z,5.8
2022-08-10T13:17:39.992Z,5.7
2022-08-10T13:18:30.065Z,8.1
2022-08-10T13:19:17.499Z,4.9
2022-08-10T13:20:12.914Z,6.1
2022-08-10T13:21:01.417Z,5.3
2022-08-10T13:21:48.856Z,6.7
2022-08-10T13:22:36.415Z,5.3
2022-08-10T13:23:23.881Z,5.4
2022-08-10T13:24:11.396Z,4.1
2022-08-10T13:24:58.775Z,5.5
2022-08-10T13:25:46.148Z,4.5
2022-08-10T13:26:33.573Z,4.5
2022-08-10T13:27:26.556Z,5.9
2022-08-10T13:28:35.627Z,20.2
2022-08-10T13:29:16.257Z,3.8
2022-08-10T13:30:10.399Z,9.6
2022-08-10T13:30:57.893Z,5.8
2022-08-10T13:32:09.299Z,8.2
2022-08-10T13:32:42.801Z,5.1
2022-08-10T13:34:41.416Z,4.5
2022-08-10T13:34:43.096Z,6.4
2022-08-10T13:35:24.822Z,4.0
2022-08-10T13:36:12.299Z,4.1
2022-08-10T13:36:59.673Z,4.5
2022-08-10T13:37:47.121Z,4.7
2022-08-10T13:38:34.485Z,4.4
2022-08-10T13:39:21.880Z,5.0
2022-08-10T13:40:09.351Z,4.3
2022-08-10T13:40:56.801Z,4.6
2022-08-10T13:41:44.205Z,4.0
2022-08-10T13:42:32.339Z,4.3
2022-08-10T13:43:20.002Z,7.8
2022-08-10T13:44:07.429Z,4.0
2022-08-10T13:44:54.832Z,5.3
2022-08-10T13:45:46.259Z,4.2
2022-08-10T13:46:36.880Z,5.2
2022-08-10T13:47:24.196Z,4.8
2022-08-10T13:48:11.500Z,5.3
2022-08-10T13:48:58.854Z,4.9
2022-08-10T13:49:46.366Z,67.6
2022-08-10T13:50:35.681Z,18.8
2022-08-10T13:51:57.502Z,14.7
2022-08-10T13:52:22.363Z,9.1
2022-08-10T13:53:14.322Z,8.0
2022-08-10T13:54:01.986Z,6.8
2022-08-10T13:54:49.313Z,7.3
2022-08-10T13:55:53.481Z,6.5
2022-08-10T13:56:33.913Z,4.3
2022-08-10T13:57:21.313Z,6.6
2022-08-10T13:58:08.627Z,6.5
2022-08-10T13:58:55.944Z,6.8
2022-08-10T14:00:34.508Z,7.4
2022-08-10T14:00:40.696Z,6.9
2022-08-10T14:01:28.167Z,4.5
2022-08-10T14:02:15.546Z,5.0
2022-08-10T14:03:02.876Z,5.3
2022-08-10T14:03:50.277Z,6.3
2022-08-10T14:04:37.590Z,6.2
2022-08-10T14:05:24.920Z,4.9
2022-08-10T14:06:12.370Z,18.7
2022-08-10T14:06:59.690Z,5.4
2022-08-10T14:08:00.597Z,5.1
2022-08-10T14:08:44.294Z,5.8
2022-08-10T14:09:31.932Z,6.0
2022-08-10T14:10:19.238Z,7.0
2022-08-10T14:11:16.542Z,5.6
2022-08-10T14:12:03.975Z,5.8
2022-08-10T14:12:51.504Z,4.8
2022-08-10T14:13:38.844Z,6.2
2022-08-10T14:14:26.222Z,15.1
2022-08-10T14:15:13.835Z,5.3
2022-08-10T14:16:01.146Z,5.1
2022-08-10T14:16:51.870Z,5.4
2022-08-10T14:17:44.167Z,4.6
2022-08-10T14:18:32.360Z,5.1
2022-08-10T14:19:19.695Z,5.5
2022-08-10T14:20:12.475Z,5.1
2022-08-10T14:21:01.402Z,4.1
2022-08-10T14:21:52.110Z,5.4
2022-08-10T14:22:39.433Z,5.5
2022-08-10T14:23:26.749Z,4.6
2022-08-10T14:24:14.063Z,5.1
2022-08-10T14:25:01.469Z,5.0
2022-08-10T14:25:49.481Z,4.3
2022-08-10T14:26:36.796Z,4.1
2022-08-10T14:27:24.150Z,4.2
2022-08-10T14:28:11.658Z,8.8
2022-08-10T14:28:58.974Z,5.9
2022-08-10T14:29:46.289Z,7.7
2022-08-10T14:30:33.704Z,4.3
2022-08-10T14:31:22.236Z,7.0
2022-08-10T14:32:09.710Z,4.7
2022-08-10T14:32:57.114Z,7.3
2022-08-10T14:33:44.397Z,5.3
2022-08-10T14:36:16.500Z,4.2
2022-08-10T14:36:20.846Z,16.7
2022-08-10T14:36:26.268Z,6.0
2022-08-10T14:37:13.723Z,3.6
2022-08-10T14:38:01.038Z,5.5
2022-08-10T14:38:48.355Z,4.8
2022-08-10T14:39:36.467Z,5.6
2022-08-10T14:40:23.856Z,5.6
2022-08-10T14:41:11.163Z,5.2
2022-08-10T14:42:01.294Z,4.1
2022-08-10T14:42:54.433Z,4.9
2022-08-10T14:43:41.868Z,4.3
2022-08-10T14:44:29.639Z,10.0
2022-08-10T14:45:16.954Z,10.0
2022-08-10T14:46:04.396Z,5.0
2022-08-10T14:46:53.021Z,4.3
2022-08-10T14:47:53.830Z,8.0
2022-08-10T14:48:40.301Z,4.2
2022-08-10T14:49:28.152Z,5.5
2022-08-10T14:50:15.756Z,4.7
2022-08-10T14:51:13.057Z,5.4
2022-08-10T14:52:03.182Z,5.1
2022-08-10T14:52:50.573Z,4.4
2022-08-10T14:53:37.897Z,4.0
2022-08-10T14:54:28.700Z,4.3
2022-08-10T14:55:19.676Z,4.0
2022-08-10T14:56:07.375Z,5.6
2022-08-10T14:56:54.774Z,5.1
2022-08-10T14:58:19.817Z,4.1
2022-08-10T14:58:39.424Z,5.0
2022-08-10T15:00:24.538Z,5.8
2022-08-10T15:00:40.483Z,4.5
2022-08-10T15:02:37.909Z,3.4
2022-08-10T15:02:39.775Z,6.7
2022-08-10T15:04:01.734Z,3.7
2022-08-10T15:04:21.774Z,4.9
2022-08-10T15:05:09.918Z,4.4
2022-08-10T15:05:59.139Z,7.6
2022-08-10T15:06:47.486Z,4.4
2022-08-10T15:07:39.476Z,3.5
2022-08-10T15:08:26.869Z,4.5
2022-08-10T15:09:19.202Z,5.0
2022-08-10T15:10:07.293Z,5.5
2022-08-10T15:10:54.702Z,4.4
2022-08-10T15:12:14.860Z,8.9
2022-08-10T15:12:40.473Z,4.5
2022-08-10T15:13:34.864Z,4.3
2022-08-10T15:14:43.013Z,4.3
2022-08-10T15:15:28.389Z,4.1
2022-08-10T15:16:16.048Z,4.7
2022-08-10T15:17:03.521Z,6.6
2022-08-10T15:24:40.741Z,3.9
2022-08-10T15:32:13.031Z,4.5
2022-08-10T15:40:22.437Z,4.3
2022-08-10T15:47:28.139Z,7.1
2022-08-10T15:55:43.030Z,4.0
2022-08-10T16:02:52.796Z,3.9
2022-08-10T16:10:28.909Z,3.5
2022-08-10T16:18:01.651Z,3.3
2022-08-10T16:25:47.888Z,3.4
2022-08-10T16:33:16.297Z,3.3
2022-08-10T16:40:48.903Z,2.4